Hauptseite
METAR-TAF:

METAR-TAF

Flughäfen :

Farnborough Airfield

Farnborough, England

Breite: 51-17N, Länge: 000-46W, Höhe: 65 m

Beobachtung

Neuester Wetterbericht von vor 34 Minuten, um 13:20 UTC
Wind 10 kt aus Süd/Südwest, variierte zwischen Süd und West/Südwest
Temperatur 21°C
Luftfeuchtigkeit 38%
Luftdruck 1015 hPa
Sichtweite 10 km oder mehr

METAR: EGLF 231320Z AUTO 21010KT 170V250 9999 NCD 21/06 Q1015

Zeit: 14:54 (13:54 UTC)

Prognose

Neuester Wetterbericht von vor 2 Stunden und 47 Minuten, um 11:07 UTC
Gültige Prognose vom 23 um 12 UTC bis 23 um 21 UTC
Wind 5 kt aus Südwest
Sichtweite 10 km oder mehr
Leicht bewölkt in der Höhe von 4500 ft

TAF: EGLF 231107Z 2312/2321 22005KT 9999 FEW045

Wetterbeobachtungen und Prognosen von mehr als 4000 Flughäfen (METAR und TAF Bericht).

Die verfügbaren Stationen werden durch gelbe und rote Markierungen auf der Karte dargestellt.

Führen Sie die Maus auf sie, um den Namen der Station zu sehen.

Darauf klicken, um die Beobachtung von Wetterbeobachtungen und Prognosen zu sehen.

Um die Karte zu ändern : klicken Sie auf den grünen Tasten mit einem schwarzen Kreuz Zum Vergrößern, auf den grünen Button mit einem Gedankenstrich zu verkleinern, oder auf die grünen Pfeile für benachbarte Karten.


METAR-TAF: